^^
Grace C. Lehan Memorial Weather Station Historical Data
Daily Summary for September 21, 2021 Units:  English    Metric   Both
Daily Weekly Monthly Yearly
  High: Low: Average:
Temperature: 75.2 °F 53.6 °F 64.3 °F
Dew Point: 65.3 °F 51.9 °F 58.6 °F
Humidity: 96% 62.8% 83%
Wind Speed: 1.3mph 0mph 0mph
Wind Gust: 5mph - -
Wind- - ESE
Pressure: 30.37 in 30.24 in -
Precipitation: 0.00 in    
 
 
Tabular Data for September 21, 2021
Time Temperature Dew Point Pressure Wind Wind Speed Wind Gust Humidity Rainfall Rate (Hourly) solar
00:00 58.9 °F 55.4 °F 30.36 in Calm     88% 0.00 in 0 W/m2
00:09 58.7 °F 55.2 °F 30.36 in Calm     88% 0.00 in 0 W/m2
00:14 58.7 °F 55.3 °F 30.36 in Calm     88.4% 0.00 in 0 W/m2
00:19 58.5 °F 55.3 °F 30.36 in Calm     89% 0.00 in 0 W/m2
00:24 58.4 °F 55.2 °F 30.37 in Calm     89% 0.00 in 0 W/m2
00:29 58.2 °F 55 °F 30.36 in Calm     89% 0.00 in 0 W/m2
00:34 58.1 °F 54.9 °F 30.36 in Calm     89% 0.00 in 0 W/m2
00:39 58 °F 55 °F 30.36 in Calm     89.7% 0.00 in 0 W/m2
00:44 57.8 °F 54.9 °F 30.37 in Calm     90% 0.00 in 0 W/m2
00:49 57.7 °F 54.8 °F 30.37 in Calm     90% 0.00 in 0 W/m2
00:54 57.6 °F 54.7 °F 30.37 in Calm     90% 0.00 in 0 W/m2
00:59 57.5 °F 54.6 °F 30.37 in Calm     90% 0.00 in 0 W/m2
01:04 57.4 °F 54.6 °F 30.37 in Calm     90.2% 0.00 in 0 W/m2
01:09 57.3 °F 54.7 °F 30.37 in Calm     91% 0.00 in 0 W/m2
01:14 57.2 °F 54.6 °F 30.37 in Calm     91% 0.00 in 0 W/m2
01:19 57.3 °F 54.7 °F 30.37 in Calm     91% 0.00 in 0 W/m2
01:24 57.2 °F 54.6 °F 30.37 in Calm     91% 0.00 in 0 W/m2
01:29 57.2 °F 54.6 °F 30.37 in Calm     91% 0.00 in 0 W/m2
01:34 57.1 °F 54.5 °F 30.37 in Calm     91% 0.00 in 0 W/m2
01:39 57 °F 54.5 °F 30.37 in Calm     91.4% 0.00 in 0 W/m2
01:44 56.8 °F 54.5 °F 30.37 in Calm     92% 0.00 in 0 W/m2
01:49 56.7 °F 54.4 °F 30.37 in Calm     91.8% 0.00 in 0 W/m2
01:54 56.7 °F 54.4 °F 30.37 in Calm     92% 0.00 in 0 W/m2
01:58 56.6 °F 54.3 °F 30.36 in Calm     92% 0.00 in 0 W/m2
02:04 56.5 °F 54.2 °F 30.36 in Calm     92% 0.00 in 0 W/m2
02:09 56.4 °F 54.1 °F 30.36 in Calm     92% 0.00 in 0 W/m2
02:14 56.3 °F 54.1 °F 30.36 in Calm     92% 0.00 in 0 W/m2
02:19 56.3 °F 54 °F 30.36 in Calm     92% 0.00 in 0 W/m2
02:24 56.2 °F 53.9 °F 30.36 in Calm     92% 0.00 in 0 W/m2
02:29 56.1 °F 53.8 °F 30.36 in Calm     92% 0.00 in 0 W/m2
02:34 56 °F 53.7 °F 30.35 in Calm     92% 0.00 in 0 W/m2
02:39 55.9 °F 53.6 °F 30.35 in Calm     92% 0.00 in 0 W/m2
02:44 55.9 °F 53.6 °F 30.35 in Calm     92% 0.00 in 0 W/m2
02:49 55.8 °F 53.5 °F 30.35 in Calm     92% 0.00 in 0 W/m2
02:54 55.8 °F 53.7 °F 30.35 in Calm     92.7% 0.00 in 0 W/m2
02:59 55.7 °F 53.7 °F 30.35 in Calm     93% 0.00 in 0 W/m2
03:04 55.7 °F 53.7 °F 30.35 in Calm     93% 0.00 in 0 W/m2
03:09 55.6 °F 53.6 °F 30.35 in Calm     93% 0.00 in 0 W/m2
03:14 55.6 °F 53.6 °F 30.35 in Calm     93% 0.00 in 0 W/m2
03:19 55.5 °F 53.5 °F 30.35 in Calm     93% 0.00 in 0 W/m2
03:24 55.4 °F 53.4 °F 30.35 in Calm     93% 0.00 in 0 W/m2
03:29 55.3 °F 53.3 °F 30.35 in Calm     93% 0.00 in 0 W/m2
03:34 55.2 °F 53.2 °F 30.34 in Calm     93% 0.00 in 0 W/m2
03:39 55.1 °F 53.1 °F 30.35 in Calm     93% 0.00 in 0 W/m2
03:44 55.2 °F 53.2 °F 30.35 in Calm     93% 0.00 in 0 W/m2
03:49 55.2 °F 53.2 °F 30.35 in Calm     93% 0.00 in 0 W/m2
03:54 55.2 °F 53.2 °F 30.35 in Calm     93% 0.00 in 0 W/m2
03:59 55.1 °F 53.2 °F 30.35 in Calm     93% 0.00 in 0 W/m2
04:00 55.1 °F 53.1 °F 30.35 in Calm     93% 0.00 in 0 W/m2
04:09 55 °F 53 °F 30.35 in Calm     93% 0.00 in 0 W/m2
04:14 55 °F 53 °F 30.35 in Calm     93% 0.00 in 0 W/m2
04:19 54.9 °F 52.9 °F 30.34 in Calm     93% 0.00 in 0 W/m2
04:24 54.8 °F 52.8 °F 30.34 in Calm     93% 0.00 in 0 W/m2
04:29 54.8 °F 52.8 °F 30.34 in Calm     93% 0.00 in 0 W/m2
04:34 54.7 °F 52.8 °F 30.34 in Calm     93.4% 0.00 in 0 W/m2
04:39 54.6 °F 52.9 °F 30.34 in Calm     94% 0.00 in 0 W/m2
04:44 54.6 °F 52.7 °F 30.34 in Calm     93.3% 0.00 in 0 W/m2
04:49 54.5 °F 52.5 °F 30.34 in Calm   1 mph 93% 0.00 in 0 W/m2
04:54 54.4 °F 52.4 °F 30.34 in Calm   1 mph 93% 0.00 in 0 W/m2
04:59 54.4 °F 52.4 °F 30.34 in Calm   1 mph 93.1% 0.00 in 0 W/m2
05:04 54.3 °F 52.6 °F 30.34 in Calm   1 mph 94% 0.00 in 0 W/m2
05:09 54.2 °F 52.5 °F 30.34 in Calm     94% 0.00 in 0 W/m2
05:14 54.1 °F 52.5 °F 30.34 in Calm     94% 0.00 in 0 W/m2
05:19 54.1 °F 52.4 °F 30.34 in Calm     94% 0.00 in 0 W/m2
05:24 54 °F 52.3 °F 30.34 in Calm     94% 0.00 in 0 W/m2
05:29 54 °F 52.3 °F 30.34 in Calm     94% 0.00 in 0 W/m2
05:34 53.9 °F 52.3 °F 30.34 in Calm     94% 0.00 in 0 W/m2
05:39 53.9 °F 52.2 °F 30.34 in Calm     94% 0.00 in 0 W/m2
05:44 53.9 °F 52.2 °F 30.34 in Calm     94% 0.00 in 0 W/m2
05:49 53.8 °F 52.1 °F 30.34 in Calm     94% 0.00 in 0 W/m2
05:54 53.8 °F 52.1 °F 30.34 in Calm     94% 0.00 in 0 W/m2
05:59 53.7 °F 52 °F 30.34 in Calm     94% 0.00 in 0 W/m2
06:04 53.7 °F 52 °F 30.34 in Calm     94% 0.00 in 0 W/m2
06:09 53.7 °F 52 °F 30.34 in Calm     94% 0.00 in 0 W/m2
06:14 53.7 °F 52 °F 30.35 in Calm     94% 0.00 in 0 W/m2
06:19 53.7 °F 52 °F 30.35 in Calm     94% 0.00 in 0 W/m2
06:24 53.7 °F 52 °F 30.35 in Calm     94% 0.00 in 0 W/m2
06:29 53.7 °F 52 °F 30.35 in Calm     94% 0.00 in 0 W/m2
06:34 53.7 °F 52 °F 30.35 in Calm     94% 0.00 in 0 W/m2
06:39 53.6 °F 51.9 °F 30.35 in Calm     94% 0.00 in 0 W/m2
06:44 53.6 °F 51.9 °F 30.35 in Calm     94% 0.00 in 5 W/m2
06:49 53.6 °F 51.9 °F 30.35 in Calm     94% 0.00 in 7 W/m2
06:54 53.6 °F 51.9 °F 30.35 in Calm     94% 0.00 in 11 W/m2
06:59 53.6 °F 51.9 °F 30.35 in Calm     94% 0.00 in 12 W/m2
07:04 53.6 °F 52.2 °F 30.35 in Calm     94.8% 0.00 in 14 W/m2
07:09 53.7 °F 52.3 °F 30.36 in Calm     95% 0.00 in 16 W/m2
07:14 53.8 °F 52.4 °F 30.35 in Calm     95% 0.00 in 16 W/m2
07:19 53.9 °F 52.5 °F 30.35 in Calm     95% 0.00 in 18 W/m2
07:24 53.9 °F 52.5 °F 30.36 in Calm     95% 0.00 in 18 W/m2
07:29 54.1 °F 52.7 °F 30.36 in Calm   1 mph 95% 0.00 in 19 W/m2
07:34 54.3 °F 52.9 °F 30.36 in Calm   1 mph 95% 0.00 in 21 W/m2
07:39 54.5 °F 53.1 °F 30.36 in Calm     95% 0.00 in 21 W/m2
07:44 54.7 °F 53.3 °F 30.36 in Calm     95% 0.00 in 21 W/m2
07:49 54.9 °F 53.5 °F 30.36 in Calm     95% 0.00 in 21 W/m2
07:54 55 °F 53.6 °F 30.36 in Calm     95% 0.00 in 21 W/m2
07:59 55.2 °F 53.9 °F 30.36 in Calm     95.4% 0.00 in 21 W/m2
08:09 55.5 °F 54.1 °F 30.36 in Calm     95% 0.00 in 28 W/m2
08:14 55.6 °F 54.2 °F 30.36 in Calm     95% 0.00 in 28 W/m2
08:19 55.8 °F 54.4 °F 30.36 in Calm     95.2% 0.00 in 30 W/m2
08:24 56 °F 54.9 °F 30.36 in Calm     96% 0.00 in 33 W/m2
08:29 56.1 °F 54.8 °F 30.37 in Calm     95.4% 0.00 in 33 W/m2
08:34 56.3 °F 54.9 °F 30.37 in Calm     95% 0.00 in 39 W/m2
08:39 56.4 °F 55 °F 30.37 in Calm     95% 0.00 in 42 W/m2
08:44 56.6 °F 55.2 °F 30.37 in Calm     95% 0.00 in 53 W/m2
08:49 56.8 °F 55.4 °F 30.37 in Calm     95% 0.00 in 63 W/m2
08:54 57.1 °F 55.7 °F 30.37 in Calm     95% 0.00 in 241 W/m2
08:59 57.6 °F 56.1 °F 30.37 in Calm   1 mph 95% 0.00 in 399 W/m2
09:04 58.2 °F 56.7 °F 30.36 in Calm   1 mph 94.8% 0.00 in 413 W/m2
09:09 59.1 °F 57.4 °F 30.36 in ESE 0.5 mph 4 mph 94% 0.00 in 434 W/m2
09:14 60.4 °F 58.3 °F 30.36 in ENE 0.1 mph 4 mph 93% 0.00 in 459 W/m2
09:19 61.6 °F 58.5 °F 30.36 in Calm   4 mph 89.5% 0.00 in 482 W/m2
09:24 62.6 °F 58.4 °F 30.37 in Calm   4 mph 86.2% 0.00 in 501 W/m2
09:29 63.5 °F 58.4 °F 30.37 in ENE 0.1 mph 4 mph 83.4% 0.00 in 524 W/m2
09:34 64.6 °F 58.7 °F 30.37 in Calm   4 mph 81.1% 0.00 in 541 W/m2
09:39 65.7 °F 59.4 °F 30.37 in Calm     80.2% 0.00 in 554 W/m2
09:44 66.8 °F 59.8 °F 30.37 in ENE 0.1 mph 1 mph 78.1% 0.00 in 568 W/m2
09:49 67.7 °F 59.9 °F 30.37 in Calm   1 mph 76.2% 0.00 in 582 W/m2
09:54 68.4 °F 60.2 °F 30.36 in Calm   1 mph 74.8% 0.00 in 596 W/m2
09:59 68.9 °F 59.4 °F 30.36 in ENE 0.1 mph 2 mph 71.7% 0.00 in 610 W/m2
10:04 69.5 °F 59.9 °F 30.36 in ENE 0.4 mph 3 mph 71.7% 0.00 in 619 W/m2
10:09 70.2 °F 60.2 °F 30.36 in Calm   3 mph 70.7% 0.00 in 628 W/m2
10:14 70.8 °F 60.1 °F 30.36 in Calm   3 mph 69% 0.00 in 636 W/m2
10:19 71.5 °F 60.1 °F 30.36 in ENE 0.1 mph 3 mph 67.3% 0.00 in 645 W/m2
10:24 71.8 °F 60.1 °F 30.36 in ENE 0.2 mph 3 mph 66.6% 0.00 in 657 W/m2
10:29 72 °F 60.3 °F 30.36 in ENE 0.4 mph 3 mph 66.7% 0.00 in 668 W/m2
10:34 72.4 °F 60 °F 30.36 in Calm   3 mph 64.9% 0.00 in 671 W/m2
10:39 72.7 °F 59.9 °F 30.36 in Calm   1 mph 64.2% 0.00 in 686 W/m2
10:44 73.1 °F 60.5 °F 30.36 in Calm   1 mph 64.7% 0.00 in 691 W/m2
10:49 73.3 °F 60.4 °F 30.36 in East 0.2 mph 3 mph 64% 0.00 in 705 W/m2
10:54 73.6 °F 60.7 °F 30.36 in East 0.1 mph 3 mph 64% 0.00 in 721 W/m2
10:59 73.9 °F 61 °F 30.36 in East 0.1 mph 3 mph 64.2% 0.00 in 788 W/m2
11:04 74 °F 60.5 °F 30.36 in Calm   3 mph 62.8% 0.00 in 788 W/m2
11:09 73.8 °F 60.5 °F 30.36 in Calm   1 mph 63.1% 0.00 in 390 W/m2
11:14 73.7 °F 60.4 °F 30.36 in Calm   1 mph 63.2% 0.00 in 390 W/m2
11:19 73.3 °F 60.4 °F 30.36 in East 0.2 mph 3 mph 63.9% 0.00 in 388 W/m2
11:24 72.9 °F 60.3 °F 30.36 in Calm   3 mph 64.6% 0.00 in 380 W/m2
11:29 72.5 °F 60.1 °F 30.36 in Calm   3 mph 65% 0.00 in 316 W/m2
11:34 72.1 °F 60.1 °F 30.36 in Calm   3 mph 65.9% 0.00 in 394 W/m2
11:39 71.8 °F 60.5 °F 30.36 in ENE 0.4 mph 3 mph 67.5% 0.00 in 394 W/m2
11:44 71.6 °F 60.4 °F 30.36 in ENE 0.4 mph 3 mph 67.7% 0.00 in 283 W/m2
11:49 71.6 °F 60.8 °F 30.35 in ENE 0.2 mph 3 mph 68.7% 0.00 in 357 W/m2
11:54 71.7 °F 61.2 °F 30.36 in ENE 1.3 mph 4 mph 69.5% 0.00 in 279 W/m2
11:59 72 °F 61.6 °F 30.35 in Calm   4 mph 69.7% 0.00 in 206 W/m2
12:00 72.1 °F 61 °F 30.35 in Calm   4 mph 68% 0.00 in 206 W/m2
12:09 72.4 °F 61.1 °F 30.35 in Calm     67.8% 0.00 in 297 W/m2
12:14 72.4 °F 61.4 °F 30.35 in Calm     68.4% 0.00 in 251 W/m2
12:19 72.3 °F 61.2 °F 30.35 in Calm     68.1% 0.00 in 251 W/m2
12:24 72.1 °F 61.2 °F 30.35 in ENE 0.2 mph 2 mph 68.6% 0.00 in 171 W/m2
12:29 72 °F 61.1 °F 30.35 in Calm   2 mph 68.6% 0.00 in 244 W/m2
12:34 71.9 °F 61.7 °F 30.34 in Calm   2 mph 70.4% 0.00 in 279 W/m2
12:39 71.9 °F 61.9 °F 30.34 in East 0.3 mph 5 mph 71% 0.00 in 244 W/m2
12:44 71.7 °F 61.9 °F 30.34 in Calm   5 mph 71.1% 0.00 in 285 W/m2
12:49 71.8 °F 62.2 °F 30.34 in ESE 0.1 mph 5 mph 71.9% 0.00 in 185 W/m2
12:54 72.2 °F 62.9 °F 30.34 in SSE 0.3 mph 5 mph 72.5% 0.00 in 209 W/m2
12:59 72.9 °F 63.4 °F 30.33 in Calm   5 mph 72.1% 0.00 in 297 W/m2
13:04 73.4 °F 63.2 °F 30.33 in South 0.1 mph 5 mph 70.6% 0.00 in 248 W/m2
13:09 73.6 °F 62.9 °F 30.33 in Calm   2 mph 69.2% 0.00 in 225 W/m2
13:14 73.6 °F 63 °F 30.33 in Calm   2 mph 69.6% 0.00 in 244 W/m2
13:19 73.6 °F 63.1 °F 30.33 in Calm   2 mph 69.8% 0.00 in 218 W/m2
13:24 73.7 °F 63.3 °F 30.33 in Calm   2 mph 70% 0.00 in 227 W/m2
13:29 73.7 °F 63.2 °F 30.33 in Calm   2 mph 69.7% 0.00 in 230 W/m2
13:34 73.6 °F 63.2 °F 30.32 in Calm   2 mph 69.9% 0.00 in 260 W/m2
13:39 73.7 °F 63.3 °F 30.32 in SE 0.3 mph 5 mph 70% 0.00 in 216 W/m2
13:44 73.5 °F 63.4 °F 30.32 in Calm   5 mph 70.6% 0.00 in 285 W/m2
13:49 73.6 °F 64.2 °F 30.31 in Calm   5 mph 72.4% 0.00 in 285 W/m2
13:54 73.8 °F 63.9 °F 30.31 in South 0.4 mph 5 mph 71.2% 0.00 in 151 W/m2
13:59 73.9 °F 64 °F 30.31 in East 0.1 mph 5 mph 71.1% 0.00 in 183 W/m2
14:04 73.9 °F 64.1 °F 30.31 in East 0.1 mph 5 mph 71.4% 0.00 in 204 W/m2
14:09 74.1 °F 64.2 °F 30.31 in Calm   1 mph 71.3% 0.00 in 248 W/m2
14:14 74.4 °F 64 °F 30.31 in Calm   1 mph 70.1% 0.00 in 251 W/m2
14:19 74.5 °F 63.9 °F 30.31 in ESE 0.1 mph 2 mph 69.5% 0.00 in 214 W/m2
14:24 74.4 °F 64 °F 30.31 in Calm   2 mph 70.1% 0.00 in 214 W/m2
14:29 74.4 °F 64.3 °F 30.31 in Calm   2 mph 70.8% 0.00 in 207 W/m2
14:34 74.4 °F 64.3 °F 30.31 in Calm   2 mph 70.7% 0.00 in 207 W/m2
14:39 74.5 °F 64.1 °F 30.30 in Calm   2 mph 70.2% 0.00 in 206 W/m2
14:43 74.5 °F 63.8 °F 30.30 in Calm   2 mph 69.3% 0.00 in 174 W/m2
15:00 74.4 °F 64.4 °F 30.30 in Calm   3 mph 71% 0.00 in 161 W/m2
15:30 74.9 °F 65.3 °F 30.28 in Calm   3 mph 72% 0.00 in 154 W/m2
16:04 74.7 °F 65.1 °F 30.28 in Calm   3 mph 72% 0.00 in 174 W/m2
16:09 74.8 °F 65.3 °F 30.28 in SE 0.2 mph 3 mph 72.3% 0.00 in 181 W/m2
16:14 75 °F 65.3 °F 30.28 in East 0.5 mph 4 mph 71.9% 0.00 in 146 W/m2
16:19 75.1 °F 65.2 °F 30.28 in South 0.6 mph 4 mph 71.4% 0.00 in 128 W/m2
16:24 75.2 °F 65.2 °F 30.28 in ESE 0.7 mph 4 mph 71.2% 0.00 in 95 W/m2
16:29 75.1 °F 65.2 °F 30.28 in Calm   4 mph 71.2% 0.00 in 67 W/m2
16:34 75 °F 65.1 °F 30.28 in ESE 0.1 mph 4 mph 71.4% 0.00 in 90 W/m2
16:39 74.8 °F 65 °F 30.28 in ESE 0.2 mph 3 mph 71.5% 0.00 in 90 W/m2
16:44 74.7 °F 64.5 °F 30.28 in Calm   3 mph 70.5% 0.00 in 77 W/m2
16:49 74.7 °F 64.4 °F 30.28 in ESE 0.3 mph 3 mph 70.4% 0.00 in 53 W/m2
16:54 74.7 °F 64.4 °F 30.28 in Calm   3 mph 70.4% 0.00 in 79 W/m2
16:59 74.6 °F 64.6 °F 30.28 in SSE 0.1 mph 3 mph 71% 0.00 in 83 W/m2
17:04 74.6 °F 64.7 °F 30.27 in South 0.5 mph 4 mph 71.3% 0.00 in 100 W/m2
17:09 74.5 °F 64.7 °F 30.28 in Calm   4 mph 71.4% 0.00 in 65 W/m2
17:14 74.4 °F 64.9 °F 30.27 in Calm   4 mph 72.3% 0.00 in 51 W/m2
17:19 74.3 °F 64.7 °F 30.28 in Calm   4 mph 72.2% 0.00 in 42 W/m2
17:24 74.1 °F 64.9 °F 30.28 in Calm   4 mph 72.9% 0.00 in 37 W/m2
17:28 74 °F 64.8 °F 30.27 in Calm   4 mph 73% 0.00 in 49 W/m2
17:34 73.8 °F 64.4 °F 30.27 in Calm   4 mph 72.4% 0.00 in 76 W/m2
17:39 73.8 °F 64.5 °F 30.27 in Calm   1 mph 72.7% 0.00 in 54 W/m2
17:44 73.7 °F 63.7 °F 30.27 in Calm   2 mph 71% 0.00 in 33 W/m2
17:49 73.5 °F 63.2 °F 30.28 in ESE 0.1 mph 2 mph 70.3% 0.00 in 14 W/m2
17:54 73.3 °F 63.2 °F 30.28 in Calm   2 mph 70.7% 0.00 in 11 W/m2
17:59 73.1 °F 63.1 °F 30.28 in Calm   2 mph 71% 0.00 in 11 W/m2
18:04 72.8 °F 63.1 °F 30.27 in Calm   2 mph 71.4% 0.00 in 11 W/m2
18:09 72.6 °F 63.2 °F 30.27 in Calm     72.2% 0.00 in 11 W/m2
18:14 72.3 °F 63.2 °F 30.27 in Calm     73% 0.00 in 11 W/m2
18:19 72.1 °F 63 °F 30.27 in Calm     73.1% 0.00 in 9 W/m2
18:24 71.8 °F 62.7 °F 30.27 in Calm   1 mph 73% 0.00 in 9 W/m2
18:29 71.5 °F 62.8 °F 30.27 in Calm   1 mph 73.8% 0.00 in 7 W/m2
18:34 71.3 °F 62.6 °F 30.27 in Calm   2 mph 74% 0.00 in 5 W/m2
18:39 71.1 °F 62.4 °F 30.27 in Calm   2 mph 74% 0.00 in 0 W/m2
18:44 70.9 °F 62.2 °F 30.27 in Calm   2 mph 74% 0.00 in 0 W/m2
18:49 70.7 °F 62.1 °F 30.27 in Calm   2 mph 74.2% 0.00 in 0 W/m2
18:54 70.6 °F 61.9 °F 30.27 in Calm   2 mph 74% 0.00 in 0 W/m2
18:59 70.4 °F 61.7 °F 30.27 in Calm   2 mph 74% 0.00 in 0 W/m2
19:04 70.2 °F 61.9 °F 30.27 in Calm   2 mph 75% 0.00 in 0 W/m2
19:09 70.1 °F 61.8 °F 30.27 in Calm     75% 0.00 in 0 W/m2
19:14 69.9 °F 61.6 °F 30.27 in Calm     75% 0.00 in 0 W/m2
19:19 69.7 °F 61.7 °F 30.27 in Calm     75.6% 0.00 in 0 W/m2
19:24 69.6 °F 61.7 °F 30.26 in Calm     76% 0.00 in 0 W/m2
19:29 69.4 °F 61.7 °F 30.27 in Calm     76.5% 0.00 in 0 W/m2
19:34 69.3 °F 61.8 °F 30.27 in Calm     77% 0.00 in 0 W/m2
19:39 69.1 °F 61.6 °F 30.27 in Calm     77% 0.00 in 0 W/m2
19:44 68.9 °F 61.8 °F 30.27 in Calm     78% 0.00 in 0 W/m2
19:49 68.8 °F 61.6 °F 30.27 in Calm     78% 0.00 in 0 W/m2
19:54 68.6 °F 61.5 °F 30.27 in Calm     78% 0.00 in 0 W/m2
19:59 68.5 °F 61.6 °F 30.27 in Calm     78.7% 0.00 in 0 W/m2
20:09 68.2 °F 61.5 °F 30.26 in Calm     79.1% 0.00 in 0 W/m2
20:14 68 °F 61.6 °F 30.27 in Calm     80% 0.00 in 0 W/m2
20:19 67.9 °F 61.5 °F 30.27 in Calm     80% 0.00 in 0 W/m2
20:24 67.7 °F 61.3 °F 30.27 in Calm     80% 0.00 in 0 W/m2
20:29 67.5 °F 61.2 °F 30.27 in Calm     80.1% 0.00 in 0 W/m2
20:34 67.4 °F 61.3 °F 30.27 in Calm     81% 0.00 in 0 W/m2
20:39 67.2 °F 61.3 °F 30.27 in Calm     81.2% 0.00 in 0 W/m2
20:44 67.1 °F 61.4 °F 30.27 in Calm     82% 0.00 in 0 W/m2
20:49 66.9 °F 61.2 °F 30.27 in Calm     82% 0.00 in 0 W/m2
20:54 66.7 °F 61.4 °F 30.27 in Calm     83% 0.00 in 0 W/m2
20:59 66.5 °F 61.2 °F 30.27 in Calm     83% 0.00 in 0 W/m2
21:04 66.4 °F 61.3 °F 30.27 in Calm     83.7% 0.00 in 0 W/m2
21:09 66.2 °F 61.3 °F 30.27 in Calm     84% 0.00 in 0 W/m2
21:14 66.1 °F 61.1 °F 30.27 in Calm     84% 0.00 in 0 W/m2
21:19 65.9 °F 61 °F 30.26 in Calm     84% 0.00 in 0 W/m2
21:24 65.8 °F 61.1 °F 30.26 in Calm     84.8% 0.00 in 0 W/m2
21:29 65.8 °F 61.1 °F 30.26 in Calm     85% 0.00 in 0 W/m2
21:34 65.7 °F 61.2 °F 30.26 in Calm     85.6% 0.00 in 0 W/m2
21:39 65.5 °F 61.3 °F 30.26 in Calm     86% 0.00 in 0 W/m2
21:44 65.4 °F 61.1 °F 30.26 in Calm     86% 0.00 in 0 W/m2
21:49 65.3 °F 61 °F 30.26 in Calm     86% 0.00 in 0 W/m2
21:54 65.1 °F 61.1 °F 30.26 in Calm     86.6% 0.00 in 0 W/m2
21:59 65 °F 61 °F 30.25 in Calm     87% 0.00 in 0 W/m2
22:04 64.8 °F 60.9 °F 30.25 in Calm     87% 0.00 in 0 W/m2
22:09 64.7 °F 60.7 °F 30.26 in Calm     87% 0.00 in 0 W/m2
22:14 64.6 °F 60.7 °F 30.25 in Calm     87.2% 0.00 in 0 W/m2
22:19 64.5 °F 60.8 °F 30.26 in Calm     88% 0.00 in 0 W/m2
22:24 64.3 °F 60.7 °F 30.26 in Calm   1 mph 88% 0.00 in 0 W/m2
22:29 64.2 °F 60.5 °F 30.26 in Calm   1 mph 88% 0.00 in 0 W/m2
22:34 64 °F 60.7 °F 30.25 in Calm   1 mph 88.9% 0.00 in 0 W/m2
22:39 63.9 °F 60.6 °F 30.25 in Calm     89% 0.00 in 0 W/m2
22:44 63.8 °F 60.5 °F 30.25 in Calm     89% 0.00 in 0 W/m2
22:49 63.8 °F 60.5 °F 30.25 in Calm     89% 0.00 in 0 W/m2
22:54 63.8 °F 60.7 °F 30.25 in Calm     89.7% 0.00 in 0 W/m2
22:59 63.8 °F 60.8 °F 30.25 in Calm     90% 0.00 in 0 W/m2
23:04 63.8 °F 60.8 °F 30.25 in Calm     90% 0.00 in 0 W/m2
23:09 63.8 °F 60.8 °F 30.25 in Calm     90% 0.00 in 0 W/m2
23:14 63.8 °F 60.8 °F 30.25 in Calm     90% 0.00 in 0 W/m2
23:19 63.8 °F 60.8 °F 30.24 in Calm     90% 0.00 in 0 W/m2
23:24 63.9 °F 61.1 °F 30.24 in Calm     90.7% 0.00 in 0 W/m2
23:29 63.9 °F 61.2 °F 30.24 in Calm     91% 0.00 in 0 W/m2
23:34 63.9 °F 61.2 °F 30.24 in Calm     91% 0.00 in 0 W/m2
23:39 63.9 °F 61.2 °F 30.24 in Calm     91% 0.00 in 0 W/m2
23:44 64 °F 61.3 °F 30.24 in Calm     91% 0.00 in 0 W/m2
23:49 64.1 °F 61.4 °F 30.24 in Calm     91% 0.00 in 0 W/m2
23:54 64.2 °F 61.5 °F 30.24 in Calm     91% 0.00 in 0 W/m2
23:59 64.2 °F 61.6 °F 30.24 in Calm     91% 0.00 in 0 W/m2
Hartford County Weather
Compliments of Weather Underground - 2 mb